Terminal Aerodrome Forecast
Issued by NWS

Home | Current Version | Previous Version | Text Only | Print | Product List | Glossary On
Versions: 1 2 3 4 5 6 7 8 9 10 11 12 13 14 15
000
FTUS44 KLIX 310500
TAFMCB
TAF
KMCB 310539Z 3106/0106 17008KT 6SM BR BKN005
      TEMPO 3108/3112 4SM BR OVC003
     FM311500 18007KT P6SM SCT025 BKN250
     FM312100 19011KT P6SM SCT050 SCT200
     FM010000 18005KT P6SM FEW025 SCT250=

USA.gov is the U.S. government's official web portal to all federal, state and local government web resources and services.